sensor_id;sensor_type;location;lat;lon;timestamp;temperature;humidity
43607;DHT22;29197;44.788;10.366;2022-10-24T00:00:03;17.50;99.90
43607;DHT22;29197;44.788;10.366;2022-10-24T00:02:52;17.60;99.90
43607;DHT22;29197;44.788;10.366;2022-10-24T00:05:45;17.40;99.90
43607;DHT22;29197;44.788;10.366;2022-10-24T00:08:35;17.40;99.90
43607;DHT22;29197;44.788;10.366;2022-10-24T00:11:25;17.50;99.90
43607;DHT22;29197;44.788;10.366;2022-10-24T00:14:15;17.60;99.90
43607;DHT22;29197;44.788;10.366;2022-10-24T00:17:04;17.80;99.90
43607;DHT22;29197;44.788;10.366;2022-10-24T00:19:55;17.80;99.90
43607;DHT22;29197;44.788;10.366;2022-10-24T00:22:47;17.70;99.90
43607;DHT22;29197;44.788;10.366;2022-10-24T00:25:36;17.60;99.90
43607;DHT22;29197;44.788;10.366;2022-10-24T00:28:25;17.70;99.90
43607;DHT22;29197;44.788;10.366;2022-10-24T00:31:19;17.80;99.90
43607;DHT22;29197;44.788;10.366;2022-10-24T00:34:12;17.90;99.90
43607;DHT22;29197;44.788;10.366;2022-10-24T00:37:03;17.90;99.90
43607;DHT22;29197;44.788;10.366;2022-10-24T00:39:53;17.90;99.90
43607;DHT22;29197;44.788;10.366;2022-10-24T00:42:43;17.90;99.90
43607;DHT22;29197;44.788;10.366;2022-10-24T00:45:45;18.00;99.90
43607;DHT22;29197;44.788;10.366;2022-10-24T00:48:36;17.90;99.90
43607;DHT22;29197;44.788;10.366;2022-10-24T00:51:29;18.00;99.90
43607;DHT22;29197;44.788;10.366;2022-10-24T00:54:19;18.10;99.90
43607;DHT22;29197;44.788;10.366;2022-10-24T00:57:15;18.10;99.90
43607;DHT22;29197;44.788;10.366;2022-10-24T01:00:11;18.10;99.90
43607;DHT22;29197;44.788;10.366;2022-10-24T01:03:01;18.00;99.90
43607;DHT22;29197;44.788;10.366;2022-10-24T01:06:04;17.90;99.90
43607;DHT22;29197;44.788;10.366;2022-10-24T01:09:02;18.00;99.90
43607;DHT22;29197;44.788;10.366;2022-10-24T01:12:09;18.10;99.90
43607;DHT22;29197;44.788;10.366;2022-10-24T01:15:11;18.20;99.90
43607;DHT22;29197;44.788;10.366;2022-10-24T01:18:09;18.20;99.90
43607;DHT22;29197;44.788;10.366;2022-10-24T01:21:06;18.20;99.90
43607;DHT22;29197;44.788;10.366;2022-10-24T01:24:05;18.20;99.90
43607;DHT22;29197;44.788;10.366;2022-10-24T01:27:27;18.20;99.90
43607;DHT22;29197;44.788;10.366;2022-10-24T01:30:19;18.10;99.90
43607;DHT22;29197;44.788;10.366;2022-10-24T01:33:15;18.10;99.90
43607;DHT22;29197;44.788;10.366;2022-10-24T01:36:09;18.20;99.90
43607;DHT22;29197;44.788;10.366;2022-10-24T01:39:01;18.20;99.90
43607;DHT22;29197;44.788;10.366;2022-10-24T01:41:52;18.20;99.90
43607;DHT22;29197;44.788;10.366;2022-10-24T01:44:46;18.20;99.90
43607;DHT22;29197;44.788;10.366;2022-10-24T01:47:40;18.20;99.90
43607;DHT22;29197;44.788;10.366;2022-10-24T01:50:32;18.20;99.90
43607;DHT22;29197;44.788;10.366;2022-10-24T01:53:23;18.30;99.90
43607;DHT22;29197;44.788;10.366;2022-10-24T01:56:16;18.30;99.90
43607;DHT22;29197;44.788;10.366;2022-10-24T01:59:06;18.30;99.90
43607;DHT22;29197;44.788;10.366;2022-10-24T02:02:07;18.20;99.90
43607;DHT22;29197;44.788;10.366;2022-10-24T02:05:02;18.30;99.90
43607;DHT22;29197;44.788;10.366;2022-10-24T02:07:55;18.10;99.90
43607;DHT22;29197;44.788;10.366;2022-10-24T02:10:49;17.70;99.90
43607;DHT22;29197;44.788;10.366;2022-10-24T02:13:42;17.80;99.90
43607;DHT22;29197;44.788;10.366;2022-10-24T02:16:34;17.80;99.90
43607;DHT22;29197;44.788;10.366;2022-10-24T02:19:31;17.60;99.90
43607;DHT22;29197;44.788;10.366;2022-10-24T02:22:36;17.70;99.90
43607;DHT22;29197;44.788;10.366;2022-10-24T02:25:37;17.80;99.90
43607;DHT22;29197;44.788;10.366;2022-10-24T02:28:31;17.90;99.90
43607;DHT22;29197;44.788;10.366;2022-10-24T02:31:24;18.00;99.90
43607;DHT22;29197;44.788;10.366;2022-10-24T02:34:18;18.00;99.90
43607;DHT22;29197;44.788;10.366;2022-10-24T02:37:09;18.00;99.90
43607;DHT22;29197;44.788;10.366;2022-10-24T02:40:02;18.10;99.90
43607;DHT22;29197;44.788;10.366;2022-10-24T02:42:54;18.10;99.90
43607;DHT22;29197;44.788;10.366;2022-10-24T02:45:46;18.20;99.90
43607;DHT22;29197;44.788;10.366;2022-10-24T02:48:41;18.20;99.90
43607;DHT22;29197;44.788;10.366;2022-10-24T02:51:33;18.20;99.90
43607;DHT22;29197;44.788;10.366;2022-10-24T02:54:23;18.20;99.90
43607;DHT22;29197;44.788;10.366;2022-10-24T02:57:14;18.20;99.90
43607;DHT22;29197;44.788;10.366;2022-10-24T03:00:04;18.20;99.90
43607;DHT22;29197;44.788;10.366;2022-10-24T03:02:54;18.20;99.90
43607;DHT22;29197;44.788;10.366;2022-10-24T03:05:43;18.20;99.90
43607;DHT22;29197;44.788;10.366;2022-10-24T03:08:32;18.20;99.90
43607;DHT22;29197;44.788;10.366;2022-10-24T03:11:22;18.10;99.90
43607;DHT22;29197;44.788;10.366;2022-10-24T03:14:13;18.10;99.90
43607;DHT22;29197;44.788;10.366;2022-10-24T03:17:02;18.10;99.90
43607;DHT22;29197;44.788;10.366;2022-10-24T03:19:51;18.20;99.90
43607;DHT22;29197;44.788;10.366;2022-10-24T03:22:40;18.20;99.90
43607;DHT22;29197;44.788;10.366;2022-10-24T03:25:29;18.20;99.90
43607;DHT22;29197;44.788;10.366;2022-10-24T03:28:19;18.20;99.90
43607;DHT22;29197;44.788;10.366;2022-10-24T03:31:10;18.30;99.90
43607;DHT22;29197;44.788;10.366;2022-10-24T03:33:59;18.20;99.90
43607;DHT22;29197;44.788;10.366;2022-10-24T03:36:48;18.20;99.90
43607;DHT22;29197;44.788;10.366;2022-10-24T03:39:37;18.20;99.90
43607;DHT22;29197;44.788;10.366;2022-10-24T03:42:27;18.20;99.90
43607;DHT22;29197;44.788;10.366;2022-10-24T03:45:16;18.30;99.90
43607;DHT22;29197;44.788;10.366;2022-10-24T03:48:07;18.30;99.90
43607;DHT22;29197;44.788;10.366;2022-10-24T03:50:56;18.30;99.90
43607;DHT22;29197;44.788;10.366;2022-10-24T03:53:46;18.30;99.90
43607;DHT22;29197;44.788;10.366;2022-10-24T03:56:35;18.30;99.90
43607;DHT22;29197;44.788;10.366;2022-10-24T03:59:25;18.30;99.90
43607;DHT22;29197;44.788;10.366;2022-10-24T04:02:15;18.30;99.90
43607;DHT22;29197;44.788;10.366;2022-10-24T04:05:06;18.30;99.90
43607;DHT22;29197;44.788;10.366;2022-10-24T04:07:56;18.30;99.90
43607;DHT22;29197;44.788;10.366;2022-10-24T04:10:45;18.30;99.90
43607;DHT22;29197;44.788;10.366;2022-10-24T04:13:34;18.30;99.90
43607;DHT22;29197;44.788;10.366;2022-10-24T04:16:25;18.30;99.90
43607;DHT22;29197;44.788;10.366;2022-10-24T04:19:14;18.20;99.90
43607;DHT22;29197;44.788;10.366;2022-10-24T04:22:06;18.20;99.90
43607;DHT22;29197;44.788;10.366;2022-10-24T04:24:56;18.30;99.90
43607;DHT22;29197;44.788;10.366;2022-10-24T04:27:45;18.30;99.90
43607;DHT22;29197;44.788;10.366;2022-10-24T04:30:34;18.20;99.90
43607;DHT22;29197;44.788;10.366;2022-10-24T04:33:24;18.20;99.90
43607;DHT22;29197;44.788;10.366;2022-10-24T04:36:13;18.20;99.90
43607;DHT22;29197;44.788;10.366;2022-10-24T04:39:05;18.10;99.90
43607;DHT22;29197;44.788;10.366;2022-10-24T04:41:55;18.20;99.90
43607;DHT22;29197;44.788;10.366;2022-10-24T04:44:45;18.10;99.90
43607;DHT22;29197;44.788;10.366;2022-10-24T04:47:34;18.10;99.90
43607;DHT22;29197;44.788;10.366;2022-10-24T04:50:24;18.00;99.90
43607;DHT22;29197;44.788;10.366;2022-10-24T04:53:14;17.90;99.90
43607;DHT22;29197;44.788;10.366;2022-10-24T04:56:07;17.80;99.90
43607;DHT22;29197;44.788;10.366;2022-10-24T04:58:58;17.80;99.90
43607;DHT22;29197;44.788;10.366;2022-10-24T05:01:49;17.80;99.90
43607;DHT22;29197;44.788;10.366;2022-10-24T05:04:40;17.80;99.90
43607;DHT22;29197;44.788;10.366;2022-10-24T05:07:28;17.70;99.90
43607;DHT22;29197;44.788;10.366;2022-10-24T05:10:18;17.80;99.90
43607;DHT22;29197;44.788;10.366;2022-10-24T05:13:10;17.80;99.90
43607;DHT22;29197;44.788;10.366;2022-10-24T05:16:00;17.80;99.90
43607;DHT22;29197;44.788;10.366;2022-10-24T05:18:50;17.90;99.90
43607;DHT22;29197;44.788;10.366;2022-10-24T05:21:40;17.90;99.90
43607;DHT22;29197;44.788;10.366;2022-10-24T05:24:29;17.80;99.90
43607;DHT22;29197;44.788;10.366;2022-10-24T05:27:18;17.80;99.90
43607;DHT22;29197;44.788;10.366;2022-10-24T05:30:21;17.80;99.90
43607;DHT22;29197;44.788;10.366;2022-10-24T05:33:11;17.70;99.90
43607;DHT22;29197;44.788;10.366;2022-10-24T05:36:05;17.70;99.90
43607;DHT22;29197;44.788;10.366;2022-10-24T05:39:02;17.70;99.90
43607;DHT22;29197;44.788;10.366;2022-10-24T05:41:51;17.70;99.90
43607;DHT22;29197;44.788;10.366;2022-10-24T05:44:42;17.70;99.90
43607;DHT22;29197;44.788;10.366;2022-10-24T05:47:32;17.70;99.90
43607;DHT22;29197;44.788;10.366;2022-10-24T05:50:22;17.70;99.90
43607;DHT22;29197;44.788;10.366;2022-10-24T05:53:13;17.70;99.90
43607;DHT22;29197;44.788;10.366;2022-10-24T05:56:02;17.70;99.90
43607;DHT22;29197;44.788;10.366;2022-10-24T05:58:54;17.70;99.90
43607;DHT22;29197;44.788;10.366;2022-10-24T06:01:44;17.80;99.90
43607;DHT22;29197;44.788;10.366;2022-10-24T06:04:36;17.50;99.90
43607;DHT22;29197;44.788;10.366;2022-10-24T06:07:25;17.70;99.90
43607;DHT22;29197;44.788;10.366;2022-10-24T06:10:14;17.80;99.90
43607;DHT22;29197;44.788;10.366;2022-10-24T06:13:04;17.80;99.90
43607;DHT22;29197;44.788;10.366;2022-10-24T06:15:54;17.80;99.90
43607;DHT22;29197;44.788;10.366;2022-10-24T06:18:43;17.80;99.90
43607;DHT22;29197;44.788;10.366;2022-10-24T06:21:35;17.80;99.90
43607;DHT22;29197;44.788;10.366;2022-10-24T06:24:24;17.80;99.90
43607;DHT22;29197;44.788;10.366;2022-10-24T06:27:13;17.90;99.90
43607;DHT22;29197;44.788;10.366;2022-10-24T06:30:02;17.90;99.90
43607;DHT22;29197;44.788;10.366;2022-10-24T06:32:52;17.90;99.90
43607;DHT22;29197;44.788;10.366;2022-10-24T06:35:41;17.80;99.90
43607;DHT22;29197;44.788;10.366;2022-10-24T06:38:31;17.80;99.90
43607;DHT22;29197;44.788;10.366;2022-10-24T06:41:20;17.90;99.90
43607;DHT22;29197;44.788;10.366;2022-10-24T06:44:10;17.80;99.90
43607;DHT22;29197;44.788;10.366;2022-10-24T06:46:59;17.90;99.90
43607;DHT22;29197;44.788;10.366;2022-10-24T06:49:48;17.80;99.90
43607;DHT22;29197;44.788;10.366;2022-10-24T06:52:37;17.70;99.90
43607;DHT22;29197;44.788;10.366;2022-10-24T06:55:28;17.70;99.90
43607;DHT22;29197;44.788;10.366;2022-10-24T06:58:17;17.80;99.90
43607;DHT22;29197;44.788;10.366;2022-10-24T07:01:08;17.80;99.90
43607;DHT22;29197;44.788;10.366;2022-10-24T07:03:57;17.80;99.90
43607;DHT22;29197;44.788;10.366;2022-10-24T07:06:46;17.80;99.90
43607;DHT22;29197;44.788;10.366;2022-10-24T07:09:35;17.70;99.90
43607;DHT22;29197;44.788;10.366;2022-10-24T07:12:25;17.70;99.90
43607;DHT22;29197;44.788;10.366;2022-10-24T07:15:14;17.90;99.90
43607;DHT22;29197;44.788;10.366;2022-10-24T07:18:03;17.70;99.90
43607;DHT22;29197;44.788;10.366;2022-10-24T07:20:52;17.80;99.90
43607;DHT22;29197;44.788;10.366;2022-10-24T07:23:41;17.80;99.90
43607;DHT22;29197;44.788;10.366;2022-10-24T07:26:31;17.70;99.90
43607;DHT22;29197;44.788;10.366;2022-10-24T07:29:22;17.70;99.90
43607;DHT22;29197;44.788;10.366;2022-10-24T07:32:11;17.80;99.90
43607;DHT22;29197;44.788;10.366;2022-10-24T07:35:01;17.70;99.90
43607;DHT22;29197;44.788;10.366;2022-10-24T07:37:51;17.80;99.90
43607;DHT22;29197;44.788;10.366;2022-10-24T07:40:41;17.80;99.90
43607;DHT22;29197;44.788;10.366;2022-10-24T07:43:31;17.70;99.90
43607;DHT22;29197;44.788;10.366;2022-10-24T07:46:23;17.80;99.90
43607;DHT22;29197;44.788;10.366;2022-10-24T07:49:12;17.80;99.90
43607;DHT22;29197;44.788;10.366;2022-10-24T07:52:01;18.20;99.90
43607;DHT22;29197;44.788;10.366;2022-10-24T07:54:52;17.80;99.90
43607;DHT22;29197;44.788;10.366;2022-10-24T07:57:41;17.80;99.90
43607;DHT22;29197;44.788;10.366;2022-10-24T08:00:32;17.80;99.90
43607;DHT22;29197;44.788;10.366;2022-10-24T08:03:22;17.90;99.90
43607;DHT22;29197;44.788;10.366;2022-10-24T08:06:14;18.10;99.90
43607;DHT22;29197;44.788;10.366;2022-10-24T08:09:04;17.90;99.90
43607;DHT22;29197;44.788;10.366;2022-10-24T08:11:55;17.90;99.90
43607;DHT22;29197;44.788;10.366;2022-10-24T08:14:44;17.90;99.90
43607;DHT22;29197;44.788;10.366;2022-10-24T08:17:34;17.90;99.90
43607;DHT22;29197;44.788;10.366;2022-10-24T08:20:26;17.90;99.90
43607;DHT22;29197;44.788;10.366;2022-10-24T08:23:17;17.90;99.90
43607;DHT22;29197;44.788;10.366;2022-10-24T08:26:13;17.90;99.90
43607;DHT22;29197;44.788;10.366;2022-10-24T08:29:02;17.90;99.90
43607;DHT22;29197;44.788;10.366;2022-10-24T08:31:57;17.90;99.90
43607;DHT22;29197;44.788;10.366;2022-10-24T08:34:46;17.90;99.90
43607;DHT22;29197;44.788;10.366;2022-10-24T08:37:38;18.00;99.90
43607;DHT22;29197;44.788;10.366;2022-10-24T08:40:28;18.10;99.90
43607;DHT22;29197;44.788;10.366;2022-10-24T08:43:17;18.10;99.90
43607;DHT22;29197;44.788;10.366;2022-10-24T08:46:19;18.20;99.90
43607;DHT22;29197;44.788;10.366;2022-10-24T08:49:17;18.20;99.90
43607;DHT22;29197;44.788;10.366;2022-10-24T08:52:16;18.30;99.90
43607;DHT22;29197;44.788;10.366;2022-10-24T08:55:13;18.20;99.90
43607;DHT22;29197;44.788;10.366;2022-10-24T08:58:26;18.30;99.90
43607;DHT22;29197;44.788;10.366;2022-10-24T09:01:23;18.30;99.90
43607;DHT22;29197;44.788;10.366;2022-10-24T09:04:18;18.30;99.90
43607;DHT22;29197;44.788;10.366;2022-10-24T09:07:14;18.40;99.90
43607;DHT22;29197;44.788;10.366;2022-10-24T09:10:14;18.30;99.90
43607;DHT22;29197;44.788;10.366;2022-10-24T09:13:11;18.20;99.90
43607;DHT22;29197;44.788;10.366;2022-10-24T09:16:01;18.20;99.90
43607;DHT22;29197;44.788;10.366;2022-10-24T09:18:52;18.20;99.90
43607;DHT22;29197;44.788;10.366;2022-10-24T09:21:43;18.20;99.90
43607;DHT22;29197;44.788;10.366;2022-10-24T09:24:36;18.20;99.90
43607;DHT22;29197;44.788;10.366;2022-10-24T09:27:31;18.40;99.90
43607;DHT22;29197;44.788;10.366;2022-10-24T09:30:22;18.30;99.90
43607;DHT22;29197;44.788;10.366;2022-10-24T09:33:25;18.30;99.90
43607;DHT22;29197;44.788;10.366;2022-10-24T09:36:18;18.30;99.90
43607;DHT22;29197;44.788;10.366;2022-10-24T09:39:26;18.30;99.90
43607;DHT22;29197;44.788;10.366;2022-10-24T09:42:16;18.30;99.90
43607;DHT22;29197;44.788;10.366;2022-10-24T09:45:34;18.30;99.90
43607;DHT22;29197;44.788;10.366;2022-10-24T09:48:28;18.30;99.90
43607;DHT22;29197;44.788;10.366;2022-10-24T09:51:27;18.40;99.90
43607;DHT22;29197;44.788;10.366;2022-10-24T09:54:25;18.40;99.90
43607;DHT22;29197;44.788;10.366;2022-10-24T09:57:16;18.40;99.90
43607;DHT22;29197;44.788;10.366;2022-10-24T10:00:06;18.40;99.90
43607;DHT22;29197;44.788;10.366;2022-10-24T10:03:20;18.40;99.90
43607;DHT22;29197;44.788;10.366;2022-10-24T10:06:15;18.40;99.90
43607;DHT22;29197;44.788;10.366;2022-10-24T10:09:11;18.50;99.90
43607;DHT22;29197;44.788;10.366;2022-10-24T10:12:01;18.50;99.90
43607;DHT22;29197;44.788;10.366;2022-10-24T10:14:50;18.50;99.90
43607;DHT22;29197;44.788;10.366;2022-10-24T10:17:48;18.60;99.90
43607;DHT22;29197;44.788;10.366;2022-10-24T10:20:41;18.50;99.90
43607;DHT22;29197;44.788;10.366;2022-10-24T10:23:32;18.60;99.90
43607;DHT22;29197;44.788;10.366;2022-10-24T10:26:25;18.60;99.90
43607;DHT22;29197;44.788;10.366;2022-10-24T10:29:21;18.60;99.90
43607;DHT22;29197;44.788;10.366;2022-10-24T10:32:18;18.70;99.90
43607;DHT22;29197;44.788;10.366;2022-10-24T10:35:17;18.70;99.90
43607;DHT22;29197;44.788;10.366;2022-10-24T10:38:18;18.70;99.90
43607;DHT22;29197;44.788;10.366;2022-10-24T10:44:46;18.80;99.90
43607;DHT22;29197;44.788;10.366;2022-10-24T10:47:46;18.70;99.90
43607;DHT22;29197;44.788;10.366;2022-10-24T10:50:41;18.90;99.90
43607;DHT22;29197;44.788;10.366;2022-10-24T10:53:40;18.90;99.90
43607;DHT22;29197;44.788;10.366;2022-10-24T10:56:33;19.00;99.90
43607;DHT22;29197;44.788;10.366;2022-10-24T11:05:30;19.40;99.90
43607;DHT22;29197;44.788;10.366;2022-10-24T11:08:41;19.40;99.90
43607;DHT22;29197;44.788;10.366;2022-10-24T11:11:35;20.00;99.90
43607;DHT22;29197;44.788;10.366;2022-10-24T12:01:15;21.50;99.90
43607;DHT22;29197;44.788;10.366;2022-10-24T12:04:34;21.70;99.90
43607;DHT22;29197;44.788;10.366;2022-10-24T12:11:05;21.80;99.90
43607;DHT22;29197;44.788;10.366;2022-10-24T12:14:07;22.00;99.90
43607;DHT22;29197;44.788;10.366;2022-10-24T12:20:38;22.50;99.90
43607;DHT22;29197;44.788;10.366;2022-10-24T12:23:29;22.60;99.90
43607;DHT22;29197;44.788;10.366;2022-10-24T12:26:25;22.70;99.90
43607;DHT22;29197;44.788;10.366;2022-10-24T12:29:20;22.70;99.90
43607;DHT22;29197;44.788;10.366;2022-10-24T12:32:32;22.40;99.90
43607;DHT22;29197;44.788;10.366;2022-10-24T12:39:07;21.80;99.90
43607;DHT22;29197;44.788;10.366;2022-10-24T12:41:56;21.50;99.90
43607;DHT22;29197;44.788;10.366;2022-10-24T12:44:46;21.50;99.90
43607;DHT22;29197;44.788;10.366;2022-10-24T12:47:38;21.80;99.90
43607;DHT22;29197;44.788;10.366;2022-10-24T12:51:04;21.90;99.90
43607;DHT22;29197;44.788;10.366;2022-10-24T12:54:02;21.80;99.90
43607;DHT22;29197;44.788;10.366;2022-10-24T12:57:24;22.00;99.90
43607;DHT22;29197;44.788;10.366;2022-10-24T13:00:22;22.40;99.90
43607;DHT22;29197;44.788;10.366;2022-10-24T13:06:06;22.70;99.90
43607;DHT22;29197;44.788;10.366;2022-10-24T13:09:24;22.60;99.90
43607;DHT22;29197;44.788;10.366;2022-10-24T13:12:39;22.50;99.90
43607;DHT22;29197;44.788;10.366;2022-10-24T13:15:39;22.70;99.90
43607;DHT22;29197;44.788;10.366;2022-10-24T13:18:42;23.00;99.90
43607;DHT22;29197;44.788;10.366;2022-10-24T13:21:42;23.00;99.90
43607;DHT22;29197;44.788;10.366;2022-10-24T13:24:35;22.90;99.90
43607;DHT22;29197;44.788;10.366;2022-10-24T13:27:30;22.60;99.90
43607;DHT22;29197;44.788;10.366;2022-10-24T13:30:25;22.30;99.90
43607;DHT22;29197;44.788;10.366;2022-10-24T13:33:48;22.00;99.90
43607;DHT22;29197;44.788;10.366;2022-10-24T13:36:40;21.80;99.90
43607;DHT22;29197;44.788;10.366;2022-10-24T13:39:33;21.90;99.90
43607;DHT22;29197;44.788;10.366;2022-10-24T13:42:31;22.10;99.90
43607;DHT22;29197;44.788;10.366;2022-10-24T13:45:31;22.30;99.90
43607;DHT22;29197;44.788;10.366;2022-10-24T13:48:24;22.60;99.90
43607;DHT22;29197;44.788;10.366;2022-10-24T13:51:20;22.80;99.90
43607;DHT22;29197;44.788;10.366;2022-10-24T13:54:17;23.00;99.90
43607;DHT22;29197;44.788;10.366;2022-10-24T13:57:27;23.00;99.90
43607;DHT22;29197;44.788;10.366;2022-10-24T14:00:25;23.10;99.90
43607;DHT22;29197;44.788;10.366;2022-10-24T14:03:18;23.10;99.90
43607;DHT22;29197;44.788;10.366;2022-10-24T14:06:08;22.90;99.90
43607;DHT22;29197;44.788;10.366;2022-10-24T14:09:01;22.70;99.90
43607;DHT22;29197;44.788;10.366;2022-10-24T14:11:56;22.50;99.90
43607;DHT22;29197;44.788;10.366;2022-10-24T14:14:47;22.20;99.90
43607;DHT22;29197;44.788;10.366;2022-10-24T14:17:37;22.10;99.90
43607;DHT22;29197;44.788;10.366;2022-10-24T14:20:30;21.90;99.90
43607;DHT22;29197;44.788;10.366;2022-10-24T14:23:24;21.90;99.90
43607;DHT22;29197;44.788;10.366;2022-10-24T14:26:16;21.90;99.90
43607;DHT22;29197;44.788;10.366;2022-10-24T14:29:20;22.10;99.90
43607;DHT22;29197;44.788;10.366;2022-10-24T14:32:13;22.20;99.90
43607;DHT22;29197;44.788;10.366;2022-10-24T14:35:04;22.20;99.90
43607;DHT22;29197;44.788;10.366;2022-10-24T14:37:54;22.00;99.90
43607;DHT22;29197;44.788;10.366;2022-10-24T14:40:44;21.90;99.90
43607;DHT22;29197;44.788;10.366;2022-10-24T14:43:41;21.70;99.90
43607;DHT22;29197;44.788;10.366;2022-10-24T14:46:35;21.70;99.90
43607;DHT22;29197;44.788;10.366;2022-10-24T14:49:29;21.70;99.90
43607;DHT22;29197;44.788;10.366;2022-10-24T14:52:23;21.70;99.90
43607;DHT22;29197;44.788;10.366;2022-10-24T14:55:19;21.80;99.90
43607;DHT22;29197;44.788;10.366;2022-10-24T14:58:20;21.90;99.90
43607;DHT22;29197;44.788;10.366;2022-10-24T15:01:15;21.90;99.90
43607;DHT22;29197;44.788;10.366;2022-10-24T15:04:05;21.80;99.90
43607;DHT22;29197;44.788;10.366;2022-10-24T15:06:55;22.00;99.90
43607;DHT22;29197;44.788;10.366;2022-10-24T15:09:53;21.70;99.90
43607;DHT22;29197;44.788;10.366;2022-10-24T15:12:51;21.60;99.90
43607;DHT22;29197;44.788;10.366;2022-10-24T15:15:50;21.50;99.90
43607;DHT22;29197;44.788;10.366;2022-10-24T15:18:41;21.50;99.90
43607;DHT22;29197;44.788;10.366;2022-10-24T15:21:33;21.50;99.90
43607;DHT22;29197;44.788;10.366;2022-10-24T15:55:52;21.10;99.90
43607;DHT22;29197;44.788;10.366;2022-10-24T15:58:42;21.20;99.90
43607;DHT22;29197;44.788;10.366;2022-10-24T16:01:33;20.90;99.90
43607;DHT22;29197;44.788;10.366;2022-10-24T16:04:28;20.80;99.90
43607;DHT22;29197;44.788;10.366;2022-10-24T16:07:20;20.70;99.90
43607;DHT22;29197;44.788;10.366;2022-10-24T16:10:12;20.70;99.90
43607;DHT22;29197;44.788;10.366;2022-10-24T16:13:01;20.70;99.90
43607;DHT22;29197;44.788;10.366;2022-10-24T16:15:50;20.70;99.90
43607;DHT22;29197;44.788;10.366;2022-10-24T16:18:40;20.70;99.90
43607;DHT22;29197;44.788;10.366;2022-10-24T16:21:31;20.70;99.90
43607;DHT22;29197;44.788;10.366;2022-10-24T16:24:20;20.50;99.90
43607;DHT22;29197;44.788;10.366;2022-10-24T16:27:09;20.50;99.90
43607;DHT22;29197;44.788;10.366;2022-10-24T16:35:39;20.60;99.90
43607;DHT22;29197;44.788;10.366;2022-10-24T21:35:22;19.20;99.90
43607;DHT22;29197;44.788;10.366;2022-10-24T21:38:11;19.20;99.90
43607;DHT22;29197;44.788;10.366;2022-10-24T21:41:00;19.10;99.90
43607;DHT22;29197;44.788;10.366;2022-10-24T21:43:49;19.00;99.90
43607;DHT22;29197;44.788;10.366;2022-10-24T21:46:41;19.00;99.90
43607;DHT22;29197;44.788;10.366;2022-10-24T21:49:30;19.00;99.90
43607;DHT22;29197;44.788;10.366;2022-10-24T21:52:19;19.00;99.90
43607;DHT22;29197;44.788;10.366;2022-10-24T21:55:08;19.00;99.90
43607;DHT22;29197;44.788;10.366;2022-10-24T21:57:58;19.00;99.90
43607;DHT22;29197;44.788;10.366;2022-10-24T22:00:48;19.00;99.90
43607;DHT22;29197;44.788;10.366;2022-10-24T22:03:39;19.00;99.90
43607;DHT22;29197;44.788;10.366;2022-10-24T22:06:29;19.00;99.90
43607;DHT22;29197;44.788;10.366;2022-10-24T22:09:21;18.90;99.90
43607;DHT22;29197;44.788;10.366;2022-10-24T22:12:11;18.90;99.90
43607;DHT22;29197;44.788;10.366;2022-10-24T22:15:00;18.90;99.90
43607;DHT22;29197;44.788;10.366;2022-10-24T22:17:50;18.90;99.90
43607;DHT22;29197;44.788;10.366;2022-10-24T22:20:41;18.90;99.90
43607;DHT22;29197;44.788;10.366;2022-10-24T22:23:30;18.90;99.90
43607;DHT22;29197;44.788;10.366;2022-10-24T23:47:08;18.50;99.90
43607;DHT22;29197;44.788;10.366;2022-10-24T23:50:07;18.60;99.90
43607;DHT22;29197;44.788;10.366;2022-10-24T23:53:04;18.50;99.90
43607;DHT22;29197;44.788;10.366;2022-10-24T23:55:59;18.50;99.90
43607;DHT22;29197;44.788;10.366;2022-10-24T23:58:49;18.50;99.90
